Nemiscau, Canada
Current Conditions -  °F | °C
As of 11:21 AM on Wednesday 26 Nov 2014 (Local Time) from CYNM Reporting Station
Light Snow Light Snow  
Wind Chill:   Ceiling: 2800
Heat Index: 16°   Visibility: 9mi
Dew Point:   Wind: 7mph
Humidity: 73%   Direction: 240°WSW
Pressure: 30.22"   Gusts: NA
Location:  51.32°N, 76.9°W
Report Text: CYNM 261621Z AUTO 24006KT 9SM -SN FEW023 BKN028 M09/M13 A3022 RMK ICG SLP257
Loading
Personal Weather Stations






























Interactive Weather Map New forecast layout! Learn more

10-Day Weather Forecast

Advertisements
Track Severe Weather on mobile